ADDS METAR Data INFO
IDs: Format: Raw Decoded Include TAF

Data at: 1502 UTC 23 Oct 2017

KOVL 231452Z AUTO 30018G29KT 10SM CLR 12/04 A2982 RMK AO2
KOVL 231433Z AUTO 30016G22KT 10SM CLR 12/05 A2982 RMK AO2
KOVL 231413Z AUTO 29017G22KT 10SM CLR 12/05 A2982 RMK AO2
KOVL 231358Z AUTO 29013G18KT 10SM CLR 11/05 A2982 RMK AO2
KOVL 231333Z AUTO 29011KT 10SM CLR 11/05 A2982 RMK AO2
KOVL 231313Z AUTO 29011G16KT 10SM CLR 11/05 A2981 RMK AO2
KOVL 231252Z AUTO 29012G19KT 10SM CLR 12/06 A2981 RMK AO2
KOVL 231233Z AUTO 29015G20KT 10SM CLR 12/06 A2980 RMK AO2
KOVL 231213Z AUTO 28012G17KT 10SM CLR 11/05 A2980 RMK AO2
KOVL 231152Z AUTO 28011KT 10SM CLR 11/06 A2979 RMK AO2
KOVL 231133Z AUTO 27011KT 10SM SCT120 10/05 A2979 RMK AO2
KOVL 231113Z AUTO 27009KT 10SM CLR 10/05 A2978 RMK AO2
KOVL 231052Z AUTO 27008KT 10SM CLR 09/03 A2977 RMK AO2
KOVL 231033Z AUTO 24007KT 10SM CLR 08/03 A2976 RMK AO2
KOVL 231013Z AUTO 21006KT 10SM CLR 08/02 A2976 RMK AO2
KOVL 230952Z AUTO 22005KT 10SM CLR 08/02 A2976 RMK AO2
KOVL 230933Z AUTO 21006KT 10SM SCT110 10/03 A2976 RMK AO2
KOVL 230913Z AUTO 18005KT 10SM BKN110 10/02 A2977 RMK AO2
KOVL 230852Z AUTO 20005KT 10SM SCT100 BKN120 10/02 A2976 RMK AO2
KOVL 230833Z AUTO 19006KT 10SM OVC100 10/02 A2977 RMK AO2
KOVL 230813Z AUTO 21004KT 10SM BKN100 10/02 A2978 RMK AO2
KOVL 230752Z AUTO 18006KT 10SM SCT095 SCT120 10/02 A2977 RMK AO2
KOVL 230733Z AUTO 19005KT 10SM SCT095 BKN110 10/02 A2978 RMK AO2
KOVL 230713Z AUTO 19006KT 10SM SCT110 10/01 A2979 RMK AO2
KOVL 230652Z AUTO 20006KT 10SM CLR 10/02 A2979 RMK AO2
KOVL 230633Z AUTO 19007KT 10SM CLR 10/01 A2979 RMK AO2
KOVL 230613Z AUTO 19007KT 10SM CLR 11/02 A2979 RMK AO2
KOVL 230552Z AUTO 18008KT 10SM CLR 11/02 A2980 RMK AO2
KOVL 230533Z AUTO 18008KT 10SM SCT120 12/02 A2980 RMK AO2
KOVL 230513Z AUTO 18009KT 10SM SCT110 12/02 A2980 RMK AO2
KOVL 230452Z AUTO 17010G15KT 10SM SCT075 12/02 A2980 RMK AO2
KOVL 230433Z AUTO 18009G14KT 10SM CLR 12/02 A2982 RMK AO2
KOVL 230413Z AUTO 18009KT 10SM SCT080 12/02 A2983 RMK AO2
KOVL 230352Z AUTO 18008KT 10SM SCT080 12/02 A2984 RMK AO2
KOVL 230333Z AUTO 17007KT 10SM SCT090 12/03 A2984 RMK AO2
KOVL 230313Z AUTO 17006KT 10SM SCT090 12/02 A2985 RMK AO2
KOVL 230252Z AUTO 17006KT 10SM SCT100 11/02 A2985 RMK AO2
KOVL 230233Z AUTO 17007KT 10SM CLR 12/02 A2986 RMK AO2
KOVL 230213Z AUTO 17007KT 10SM SCT120 12/02 A2986 RMK AO2
KOVL 230152Z AUTO 17007KT 10SM CLR 11/01 A2986 RMK AO2
KOVL 230133Z AUTO 16007KT 10SM CLR 11/02 A2986 RMK AO2
KOVL 230113Z AUTO 16007KT 10SM CLR 11/01 A2987 RMK AO2
KOVL 230052Z AUTO 16007KT 10SM CLR 12/02 A2987 RMK AO2
KOVL 230033Z AUTO 16005KT 10SM CLR 12/02 A2988 RMK AO2
KOVL 230013Z AUTO 17005KT 10SM CLR 12/01 A2988 RMK AO2
KOVL 222352Z AUTO 17006KT 10SM CLR 13/01 A2988 RMK AO2
KOVL 222333Z AUTO 17006KT 10SM CLR 13/01 A2988 RMK AO2
KOVL 222313Z AUTO 18006KT 10SM CLR 15/01 A2988 RMK AO2
KOVL 222252Z AUTO 20008KT 10SM CLR 16/00 A2989 RMK AO2
KOVL 222233Z AUTO 20010G14KT 10SM CLR 16/00 A2989 RMK AO2
KOVL 222213Z AUTO 20009KT 10SM CLR 17/00 A2989 RMK AO2
KOVL 222152Z AUTO 22011G14KT 10SM CLR 17/00 A2989 RMK AO2
KOVL 222133Z AUTO 22010G14KT 10SM CLR 17/00 A2990 RMK AO2
KOVL 222113Z AUTO 21008KT 10SM CLR 17/00 A2990 RMK AO2
KOVL 222052Z AUTO 23010G16KT 10SM CLR 17/00 A2991 RMK AO2
KOVL 222033Z AUTO 21011G15KT 10SM CLR 17/00 A2992 RMK AO2
KOVL 222013Z AUTO 23012G16KT 10SM CLR 17/00 A2992 RMK AO2
KOVL 221952Z AUTO 23012G17KT 10SM CLR 17/00 A2993 RMK AO2
KOVL 221933Z AUTO 23011G17KT 10SM CLR 17/00 A2994 RMK AO2
KOVL 221913Z AUTO 25008G16KT 10SM CLR 17/00 A2995 RMK AO2
KOVL 221852Z AUTO 26011G15KT 10SM CLR 17/00 A2996 RMK AO2
KOVL 221833Z AUTO 25010G15KT 10SM CLR 17/01 A2996 RMK AO2
KOVL 221813Z AUTO 25010KT 10SM CLR 16/01 A2997 RMK AO2
KOVL 221753Z AUTO 25009KT 10SM CLR 16/00 A2998 RMK AO2
KOVL 221732Z AUTO 24009KT 10SM CLR 15/02 A2999 RMK AO2
KOVL 221713Z AUTO 27012KT 10SM CLR 15/03 A3000 RMK AO2
KOVL 221652Z AUTO 26010KT 10SM CLR 14/03 A3000 RMK AO2
KOVL 221633Z AUTO 26010KT 10SM CLR 13/04 A3000 RMK AO2
KOVL 221612Z AUTO 24007KT 10SM CLR 12/04 A2999 RMK AO2
KOVL 221553Z AUTO 25007KT 10SM CLR 12/05 A2999 RMK AO2
KOVL 221532Z AUTO 24007KT 10SM CLR 11/05 A2999 RMK AO2
KOVL 221513Z AUTO 24008KT 10SM CLR 10/04 A2999 RMK AO2
KOVL 221453Z AUTO 25009KT 10SM CLR 10/05 A2999 RMK AO2
KOVL 221432Z AUTO 25008KT 10SM CLR 07/03 A2999 RMK AO2
KOVL 221413Z AUTO 25007KT 10SM CLR 05/03 A2998 RMK AO2
KOVL 221353Z AUTO 24005KT 10SM CLR 04/02 A2998 RMK AO2
KOVL 221332Z AUTO 23006KT 10SM CLR 03/02 A2998 RMK AO2
KOVL 221313Z AUTO 23006KT 10SM CLR 04/02 A2998 RMK AO2
KOVL 221253Z AUTO 23006KT 10SM CLR 04/02 A2997 RMK AO2
KOVL 221233Z AUTO 23005KT 10SM CLR 04/02 A2997 RMK AO2
KOVL 221213Z AUTO 23005KT 10SM CLR 04/02 A2996 RMK AO2
KOVL 221153Z AUTO 23005KT 10SM CLR 04/02 A2995 RMK AO2
KOVL 221133Z AUTO 24006KT 10SM CLR 04/02 A2995 RMK AO2
KOVL 221113Z AUTO 24005KT 10SM CLR 04/02 A2994 RMK AO2
KOVL 221053Z AUTO 24005KT 10SM CLR 05/03 A2993 RMK AO2
KOVL 221033Z AUTO 25005KT 10SM CLR 05/03 A2992 RMK AO2
KOVL 221013Z AUTO 24004KT 10SM CLR 05/03 A2993 RMK AO2
KOVL 220952Z AUTO 24005KT 10SM CLR 06/03 A2992 RMK AO2
KOVL 220933Z AUTO 25006KT 10SM CLR 05/03 A2992 RMK AO2
KOVL 220913Z AUTO 23005KT 10SM CLR 06/03 A2992 RMK AO2
KOVL 220852Z AUTO 26005KT 10SM CLR 06/03 A2990 RMK AO2
KOVL 220833Z AUTO 25007KT 10SM CLR 06/03 A2990 RMK AO2
KOVL 220813Z AUTO 25005KT 10SM CLR 05/03 A2989 RMK AO2
KOVL 220752Z AUTO 24006KT 10SM CLR 05/03 A2989 RMK AO2
KOVL 220733Z AUTO 25008KT 10SM CLR 06/03 A2989 RMK AO2
KOVL 220713Z AUTO 25006KT 10SM CLR 05/03 A2990 RMK AO2
KOVL 220652Z AUTO 24005KT 10SM CLR 05/03 A2989 RMK AO2
KOVL 220633Z AUTO 23005KT 10SM CLR 06/03 A2988 RMK AO2
KOVL 220613Z AUTO 24006KT 10SM CLR 06/03 A2988 RMK AO2
KOVL 220552Z AUTO 23005KT 10SM CLR 06/04 A2988 RMK AO2
KOVL 220533Z AUTO 23007KT 10SM CLR 06/04 A2988 RMK AO2
KOVL 220513Z AUTO 23006KT 10SM CLR 07/05 A2988 RMK AO2
KOVL 220453Z AUTO 23006KT 10SM CLR 07/05 A2986 RMK AO2
KOVL 220433Z AUTO 23005KT 10SM CLR 07/05 A2985 RMK AO2
KOVL 220412Z AUTO 25006KT 10SM CLR 08/06 A2984 RMK AO2
KOVL 220353Z AUTO 25007KT 10SM CLR 08/06 A2983 RMK AO2
KOVL 220333Z AUTO 25006KT 10SM CLR 10/06 A2984 RMK AO2 LTG DSNT NE
KOVL 220312Z AUTO 26007KT 10SM CLR 10/06 A2984 RMK AO2